createdAt,value
2022-09-20T00:00:07.766Z,64.82
2022-09-20T00:05:08.118Z,64.83
2022-09-20T00:10:07.819Z,64.83
2022-09-20T00:15:08.511Z,64.82
2022-09-20T00:20:08.200Z,64.85
2022-09-20T00:25:07.959Z,64.86
2022-09-20T00:30:07.672Z,64.85
2022-09-20T00:35:08.345Z,64.88
2022-09-20T00:40:08.177Z,64.87
2022-09-20T00:45:07.949Z,64.86
2022-09-20T00:50:12.261Z,64.87
2022-09-20T00:55:07.956Z,64.86
2022-09-20T01:00:09.099Z,64.89
2022-09-20T01:05:07.792Z,64.88
2022-09-20T01:10:08.492Z,64.88
2022-09-20T01:15:08.170Z,64.9
2022-09-20T01:20:08.143Z,64.92
2022-09-20T01:25:07.846Z,64.93
2022-09-20T01:30:08.535Z,64.92
2022-09-20T01:35:08.264Z,64.94
2022-09-20T01:40:08.006Z,64.93
2022-09-20T01:45:07.766Z,64.94
2022-09-20T01:50:08.464Z,64.92
2022-09-20T01:55:08.148Z,64.94
2022-09-20T02:00:09.803Z,64.93
2022-09-20T02:05:08.476Z,64.95
2022-09-20T02:10:08.160Z,64.95
2022-09-20T02:15:10.389Z,64.96
2022-09-20T02:20:08.074Z,64.95
2022-09-20T02:25:07.776Z,64.92
2022-09-20T02:30:08.486Z,64.94
2022-09-20T02:35:08.220Z,64.95
2022-09-20T02:40:07.984Z,64.92
2022-09-20T02:45:17.701Z,64.93
2022-09-20T02:50:08.395Z,64.93
2022-09-20T02:55:08.131Z,64.95
2022-09-20T03:00:07.820Z,64.96
2022-09-20T03:05:08.513Z,64.97
2022-09-20T03:10:08.266Z,64.96
2022-09-20T03:15:07.976Z,64.96
2022-09-20T03:20:07.683Z,64.97
2022-09-20T03:25:08.404Z,64.96
2022-09-20T03:30:08.102Z,64.97
2022-09-20T03:35:07.777Z,64.96
2022-09-20T03:40:18.528Z,64.96
2022-09-20T03:45:08.266Z,64.96
2022-09-20T03:50:08.437Z,64.95
2022-09-20T03:55:08.155Z,64.95
2022-09-20T04:00:07.840Z,64.94
2022-09-20T04:05:02.659Z,64.92
2022-09-20T04:10:02.694Z,64.91
2022-09-20T04:15:02.720Z,64.9
2022-09-20T04:20:02.662Z,64.9
2022-09-20T04:25:02.530Z,64.88
2022-09-20T04:30:02.329Z,64.87
2022-09-20T04:35:02.197Z,64.84
2022-09-20T04:40:12.231Z,64.84
2022-09-20T04:45:02.089Z,64.85
2022-09-20T04:50:02.135Z,64.85
2022-09-20T04:55:02.054Z,64.84
2022-09-20T05:00:02.277Z,64.83
2022-09-20T05:05:02.333Z,64.89
2022-09-20T05:10:02.355Z,64.86
2022-09-20T05:15:02.300Z,64.85
2022-09-20T05:20:12.262Z,64.85
2022-09-20T05:25:02.388Z,64.88
2022-09-20T05:30:04.873Z,64.88
2022-09-20T05:35:02.187Z,64.89
2022-09-20T05:40:02.228Z,64.89
2022-09-20T05:45:02.337Z,64.92
2022-09-20T05:50:12.190Z,64.9
2022-09-20T05:55:01.995Z,64.92
2022-09-20T06:00:01.865Z,64.92
2022-09-20T06:05:02.713Z,64.92
2022-09-20T06:10:02.787Z,64.93
2022-09-20T06:15:02.687Z,64.93
2022-09-20T06:20:12.540Z,64.95
2022-09-20T06:25:02.546Z,64.94
2022-09-20T06:30:02.450Z,64.93
2022-09-20T06:35:02.363Z,64.96
2022-09-20T06:40:02.199Z,64.94
2022-09-20T06:45:02.052Z,64.92
2022-09-20T06:50:01.915Z,64.93
2022-09-20T06:55:02.804Z,64.9
2022-09-20T07:00:02.667Z,64.87
2022-09-20T07:05:02.538Z,64.86
2022-09-20T07:10:02.361Z,64.84
2022-09-20T07:15:02.161Z,64.84
2022-09-20T07:20:02.097Z,64.83
2022-09-20T07:25:02.188Z,64.83
2022-09-20T07:30:02.016Z,64.81
2022-09-20T07:35:01.958Z,64.77
2022-09-20T07:40:02.126Z,64.75
2022-09-20T07:45:02.286Z,64.72
2022-09-20T07:50:02.727Z,64.72
2022-09-20T07:55:02.818Z,64.66
2022-09-20T08:00:02.801Z,64.65
2022-09-20T08:05:02.807Z,64.62
2022-09-20T08:10:02.733Z,64.59
2022-09-20T08:15:02.640Z,64.54
2022-09-20T08:20:02.535Z,64.53
2022-09-20T08:25:02.321Z,64.5
2022-09-20T08:30:02.461Z,64.49
2022-09-20T08:35:02.337Z,64.46
2022-09-20T08:40:02.429Z,64.44
2022-09-20T08:45:02.469Z,64.42
2022-09-20T08:50:09.165Z,64.39
2022-09-20T08:55:07.675Z,64.35
2022-09-20T09:00:02.740Z,64.33
2022-09-20T09:05:02.637Z,64.3
2022-09-20T09:10:03.121Z,64.28
2022-09-20T09:15:02.203Z,64.24
2022-09-20T09:20:02.228Z,64.21
2022-09-20T09:25:02.310Z,64.15
2022-09-20T09:30:02.380Z,64.12
2022-09-20T09:35:02.224Z,64.05
2022-09-20T09:40:02.406Z,64.04
2022-09-20T09:45:02.314Z,64.02
2022-09-20T09:50:06.261Z,63.97
2022-09-20T09:55:05.134Z,63.95
2022-09-20T10:00:11.979Z,63.91
2022-09-20T10:05:02.395Z,63.86
2022-09-20T10:10:02.212Z,63.85
2022-09-20T10:15:02.207Z,63.8
2022-09-20T10:20:02.521Z,63.75
2022-09-20T10:25:02.830Z,63.71
2022-09-20T10:30:02.784Z,63.66
2022-09-20T10:35:12.750Z,63.65
2022-09-20T10:40:02.786Z,63.61
2022-09-20T10:45:02.919Z,63.57
2022-09-20T10:50:02.932Z,63.57
2022-09-20T10:55:11.688Z,63.49
2022-09-20T11:00:02.965Z,63.49
2022-09-20T11:05:01.751Z,63.44
2022-09-20T11:10:02.725Z,63.4
2022-09-20T11:15:02.560Z,63.33
2022-09-20T11:20:07.103Z,63.34
2022-09-20T11:25:02.609Z,63.27
2022-09-20T11:30:04.592Z,63.23
2022-09-20T11:35:02.491Z,63.16
2022-09-20T11:40:02.445Z,63.12
2022-09-20T11:45:02.384Z,63.07
2022-09-20T11:50:02.254Z,63.02
2022-09-20T11:55:02.126Z,62.91
2022-09-20T12:00:01.944Z,62.87
2022-09-20T12:05:02.933Z,62.76
2022-09-20T12:10:01.815Z,62.7
2022-09-20T12:15:02.642Z,62.62
2022-09-20T12:20:02.500Z,62.45
2022-09-20T12:25:02.278Z,62.25
2022-09-20T12:30:02.084Z,62.17
2022-09-20T12:35:01.981Z,62.06
2022-09-20T12:40:01.809Z,62.02
2022-09-20T12:45:02.853Z,61.97
2022-09-20T12:50:12.650Z,61.94
2022-09-20T12:55:07.593Z,61.98
2022-09-20T13:00:02.229Z,62.01
2022-09-20T13:05:02.241Z,62.07
2022-09-20T13:10:02.240Z,62.12
2022-09-20T13:15:02.235Z,62.19
2022-09-20T13:20:02.407Z,62.21
2022-09-20T13:25:02.351Z,62.28
2022-09-20T13:30:02.456Z,62.36
2022-09-20T13:35:09.212Z,62.43
2022-09-20T13:40:02.187Z,62.46
2022-09-20T13:45:02.897Z,62.46
2022-09-20T13:50:12.768Z,62.49
2022-09-20T13:55:02.652Z,62.49
2022-09-20T14:00:02.529Z,62.47
2022-09-20T14:05:02.474Z,62.45
2022-09-20T14:10:02.340Z,62.44
2022-09-20T14:15:02.347Z,62.39
2022-09-20T14:20:02.160Z,62.37
2022-09-20T14:25:02.037Z,62.3
2022-09-20T14:30:01.934Z,62.27
2022-09-20T14:35:01.810Z,62.22
2022-09-20T14:40:02.649Z,62.22
2022-09-20T14:45:02.611Z,62.2
2022-09-20T14:50:02.424Z,62.19
2022-09-20T14:55:02.224Z,62.16
2022-09-20T15:00:01.975Z,62.11
2022-09-20T15:05:01.696Z,62.08
2022-09-20T15:10:02.636Z,62.03
2022-09-20T15:15:02.364Z,62.0
2022-09-20T15:20:02.206Z,62.0
2022-09-20T15:25:01.958Z,61.99
2022-09-20T15:30:01.779Z,62.0
2022-09-20T15:35:02.766Z,61.98
2022-09-20T15:40:02.845Z,61.99
2022-09-20T15:45:02.790Z,62.03
2022-09-20T15:50:02.765Z,62.05
2022-09-20T15:55:02.647Z,62.05
2022-09-20T16:00:02.578Z,62.06
2022-09-20T16:05:02.522Z,62.06
2022-09-20T16:10:02.433Z,62.11
2022-09-20T16:15:02.394Z,62.11
2022-09-20T16:20:04.495Z,62.17
2022-09-20T16:25:02.417Z,62.18
2022-09-20T16:30:02.276Z,62.2
2022-09-20T16:35:02.199Z,62.23
2022-09-20T16:40:02.077Z,62.26
2022-09-20T16:45:01.982Z,62.26
2022-09-20T16:50:01.781Z,62.28
2022-09-20T16:55:02.656Z,62.31
2022-09-20T17:00:02.574Z,62.34
2022-09-20T17:05:02.389Z,62.34
2022-09-20T17:10:02.231Z,62.38
2022-09-20T17:15:02.056Z,62.39
2022-09-20T17:20:01.998Z,62.42
2022-09-20T17:25:01.831Z,62.46
2022-09-20T17:30:02.721Z,62.49
2022-09-20T17:35:02.576Z,62.52
2022-09-20T17:40:02.538Z,62.55
2022-09-20T17:45:02.403Z,62.59
2022-09-20T17:50:02.537Z,62.62
2022-09-20T17:55:02.346Z,62.69
2022-09-20T18:00:02.457Z,62.69
2022-09-20T18:05:02.318Z,62.74
2022-09-20T18:10:02.130Z,62.77
2022-09-20T18:15:01.934Z,62.79
2022-09-20T18:20:01.894Z,62.82
2022-09-20T18:25:02.844Z,62.88
2022-09-20T18:30:02.770Z,62.88
2022-09-20T18:35:02.682Z,62.88
2022-09-20T18:40:02.672Z,62.94
2022-09-20T18:45:02.535Z,62.97
2022-09-20T18:50:02.400Z,62.97
2022-09-20T18:55:02.328Z,63.03
2022-09-20T19:00:03.933Z,63.06
2022-09-20T19:05:02.074Z,63.08
2022-09-20T19:10:11.887Z,63.11
2022-09-20T19:15:02.792Z,63.16
2022-09-20T19:20:02.580Z,63.18
2022-09-20T19:25:02.402Z,63.2
2022-09-20T19:30:02.245Z,63.24
2022-09-20T19:35:02.078Z,63.28
2022-09-20T19:40:02.048Z,63.3
2022-09-20T19:45:02.056Z,63.33
2022-09-20T19:50:01.905Z,63.38
2022-09-20T19:55:02.804Z,63.41
2022-09-20T20:00:06.206Z,63.44
2022-09-20T20:05:02.478Z,63.47
2022-09-20T20:10:02.429Z,63.47
2022-09-20T20:15:02.241Z,63.52
2022-09-20T20:20:02.093Z,63.53
2022-09-20T20:25:01.902Z,63.56
2022-09-20T20:30:02.749Z,63.57
2022-09-20T20:35:15.382Z,63.64
2022-09-20T20:40:08.146Z,63.64
2022-09-20T20:45:07.879Z,63.68
2022-09-20T20:50:08.579Z,63.71
2022-09-20T20:55:08.264Z,63.74
2022-09-20T21:00:07.965Z,63.76
2022-09-20T21:05:07.646Z,63.79
2022-09-20T21:10:08.369Z,63.79
2022-09-20T21:15:08.088Z,63.83
2022-09-20T21:20:07.808Z,63.84
2022-09-20T21:25:08.488Z,63.89
2022-09-20T21:30:08.195Z,63.89
2022-09-20T21:35:07.913Z,63.95
2022-09-20T21:40:08.758Z,63.94
2022-09-20T21:45:08.583Z,63.96
2022-09-20T21:50:08.331Z,63.98
2022-09-20T21:55:08.012Z,64.01
2022-09-20T22:00:07.759Z,64.04
2022-09-20T22:05:08.456Z,64.05
2022-09-20T22:10:08.166Z,64.08
2022-09-20T22:15:07.858Z,64.07
2022-09-20T22:20:08.674Z,64.11
2022-09-20T22:25:08.402Z,64.14
2022-09-20T22:30:08.111Z,64.12
2022-09-20T22:35:07.791Z,64.16
2022-09-20T22:40:08.660Z,64.16
2022-09-20T22:45:08.400Z,64.17
2022-09-20T22:50:08.117Z,64.2
2022-09-20T22:55:07.827Z,64.21
2022-09-20T23:01:01.461Z,64.24
2022-09-20T23:05:08.188Z,64.25
2022-09-20T23:10:08.241Z,64.28
2022-09-20T23:15:07.987Z,64.27
2022-09-20T23:20:07.706Z,64.29
2022-09-20T23:25:08.433Z,64.31
2022-09-20T23:30:08.142Z,64.31
2022-09-20T23:35:07.854Z,64.32
2022-09-20T23:40:08.617Z,64.31
2022-09-20T23:45:08.332Z,64.32
2022-09-20T23:50:08.053Z,64.33
2022-09-20T23:55:07.798Z,64.34
